CKK9014 ZGGG-ZUGY
Flight info
| Callsign | CKK9014 |
|---|---|
| Flight time | 1h 20m |
| Altitude | 32100 |
| Route | AGVIL9 AGVIL W24 OSNOV G586 QP B330 ESNIB |
| Aircraft | MD11/H-SDE1E2E3FGHIJ2J3J4J5M1RWXY/LB1D1 |
Departure
| Time | 2026-04-24 07:38 |
|---|---|
| Airport | Guangzhou Baiyun International Airport (ZGGG) |
Arrival
| Time | 2026-04-24 08:58 |
|---|---|
| Airport | Guiyang Longdongbao International Airport (ZUGY) |
| Time | Latitude | Longitude | Altitude | Speed | Heading |
|---|---|---|---|---|---|
| 2026-04-24 07:12 | 23.40270 | 113.32290 | 55 ft | 0 kts | 107° |
| 2026-04-24 07:23 | 23.40274 | 113.32276 | 53 ft | 4 kts | 107° |
| 2026-04-24 07:23 | 23.40282 | 113.32248 | 53 ft | 4 kts | 107° |
| 2026-04-24 07:23 | 23.40290 | 113.32220 | 53 ft | 4 kts | 112° |
| 2026-04-24 07:23 | 23.40301 | 113.32196 | 53 ft | 4 kts | 136° |
| 2026-04-24 07:24 | 23.40312 | 113.32185 | 53 ft | 3 kts | 192° |
| 2026-04-24 07:24 | 23.40333 | 113.32191 | 53 ft | 4 kts | 195° |
| 2026-04-24 07:24 | 23.40345 | 113.32195 | 53 ft | 0 kts | 195° |
| 2026-04-24 07:27 | 23.40343 | 113.32194 | 53 ft | 1 kts | 195° |
| 2026-04-24 07:28 | 23.40335 | 113.32192 | 53 ft | 2 kts | 195° |
| 2026-04-24 07:28 | 23.40309 | 113.32185 | 53 ft | 7 kts | 194° |
| 2026-04-24 07:28 | 23.40232 | 113.32163 | 57 ft | 14 kts | 195° |
| 2026-04-24 07:28 | 23.40172 | 113.32107 | 57 ft | 7 kts | 248° |
| 2026-04-24 07:29 | 23.40176 | 113.32074 | 57 ft | 4 kts | 288° |
| 2026-04-24 07:29 | 23.40188 | 113.32031 | 55 ft | 12 kts | 286° |
| 2026-04-24 07:29 | 23.40214 | 113.31925 | 56 ft | 14 kts | 282° |
| 2026-04-24 07:29 | 23.40189 | 113.31854 | 53 ft | 8 kts | 216° |
| 2026-04-24 07:30 | 23.40140 | 113.31834 | 55 ft | 7 kts | 195° |
| 2026-04-24 07:30 | 23.40092 | 113.31821 | 57 ft | 10 kts | 194° |
| 2026-04-24 07:30 | 23.39978 | 113.31790 | 55 ft | 24 kts | 194° |
| 2026-04-24 07:30 | 23.39810 | 113.31744 | 55 ft | 24 kts | 194° |
| 2026-04-24 07:31 | 23.39651 | 113.31702 | 55 ft | 23 kts | 193° |
| 2026-04-24 07:31 | 23.39504 | 113.31662 | 57 ft | 21 kts | 193° |
| 2026-04-24 07:31 | 23.39367 | 113.31626 | 54 ft | 20 kts | 193° |
| 2026-04-24 07:31 | 23.39240 | 113.31592 | 56 ft | 18 kts | 193° |
| 2026-04-24 07:32 | 23.39121 | 113.31561 | 54 ft | 17 kts | 193° |
| 2026-04-24 07:32 | 23.39013 | 113.31532 | 55 ft | 15 kts | 194° |
| 2026-04-24 07:32 | 23.38859 | 113.31490 | 54 ft | 36 kts | 193° |
| 2026-04-24 07:32 | 23.38598 | 113.31420 | 57 ft | 38 kts | 194° |
| 2026-04-24 07:33 | 23.38353 | 113.31353 | 58 ft | 35 kts | 194° |
| 2026-04-24 07:33 | 23.38129 | 113.31293 | 58 ft | 32 kts | 194° |
| 2026-04-24 07:33 | 23.37924 | 113.31238 | 54 ft | 29 kts | 194° |
| 2026-04-24 07:33 | 23.37737 | 113.31186 | 54 ft | 27 kts | 194° |
| 2026-04-24 07:34 | 23.37521 | 113.31127 | 54 ft | 35 kts | 194° |
| 2026-04-24 07:34 | 23.37275 | 113.31062 | 55 ft | 36 kts | 193° |
| 2026-04-24 07:34 | 23.37039 | 113.30997 | 57 ft | 33 kts | 194° |
| 2026-04-24 07:34 | 23.36937 | 113.30950 | 55 ft | 4 kts | 236° |
| 2026-04-24 07:35 | 23.36936 | 113.30935 | 53 ft | 5 kts | 263° |
| 2026-04-24 07:35 | 23.36952 | 113.30828 | 56 ft | 24 kts | 283° |
| 2026-04-24 07:35 | 23.36999 | 113.30632 | 61 ft | 14 kts | 292° |
| 2026-04-24 07:35 | 23.37030 | 113.30601 | 57 ft | 5 kts | 342° |
| 2026-04-24 07:36 | 23.37136 | 113.30619 | 57 ft | 28 kts | 14° |
| 2026-04-24 07:36 | 23.37376 | 113.30684 | 58 ft | 33 kts | 13° |
| 2026-04-24 07:36 | 23.37507 | 113.30712 | 58 ft | 1 kts | 354° |
| 2026-04-24 07:36 | 23.37524 | 113.30701 | 55 ft | 8 kts | 324° |
| 2026-04-24 07:37 | 23.37563 | 113.30628 | 56 ft | 9 kts | 287° |
| 2026-04-24 07:37 | 23.37572 | 113.30598 | 58 ft | 1 kts | 291° |
| 2026-04-24 07:37 | 23.37589 | 113.30571 | 54 ft | 10 kts | 310° |
| 2026-04-24 07:37 | 23.37616 | 113.30557 | 54 ft | 6 kts | 351° |
| 2026-04-24 07:38 | 23.37672 | 113.30566 | 57 ft | 11 kts | 15° |
| 2026-04-24 07:38 | 23.37972 | 113.30649 | 57 ft | 93 kts | 14° |
| 2026-04-24 07:38 | 23.38902 | 113.30903 | 69 ft | 176 kts | 15° |
| 2026-04-24 07:38 | 23.40159 | 113.31266 | 728 ft | 189 kts | 16° |
| 2026-04-24 07:39 | 23.41310 | 113.31585 | 2238 ft | 166 kts | 14° |
| 2026-04-24 07:39 | 23.42497 | 113.31896 | 2743 ft | 174 kts | 14° |
| 2026-04-24 07:39 | 23.43688 | 113.32214 | 2921 ft | 176 kts | 15° |
| 2026-04-24 07:39 | 23.44876 | 113.32535 | 2983 ft | 181 kts | 15° |
| 2026-04-24 07:40 | 23.46127 | 113.32874 | 3690 ft | 202 kts | 15° |
| 2026-04-24 07:40 | 23.47623 | 113.33283 | 4139 ft | 232 kts | 14° |
| 2026-04-24 07:40 | 23.49222 | 113.33718 | 5102 ft | 242 kts | 12° |
| 2026-04-24 07:40 | 23.50882 | 113.34183 | 6014 ft | 251 kts | 14° |
| 2026-04-24 07:41 | 23.52573 | 113.34744 | 6856 ft | 258 kts | 15° |
| 2026-04-24 07:41 | 23.54300 | 113.35354 | 7618 ft | 264 kts | 15° |
| 2026-04-24 07:41 | 23.56084 | 113.35867 | 8403 ft | 266 kts | 9° |
| 2026-04-24 07:41 | 23.57913 | 113.36253 | 9227 ft | 270 kts | 7° |
| 2026-04-24 07:42 | 23.59748 | 113.36610 | 9983 ft | 274 kts | 7° |
| 2026-04-24 07:42 | 23.61635 | 113.36972 | 10748 ft | 277 kts | 6° |
| 2026-04-24 07:42 | 23.63546 | 113.37337 | 11471 ft | 283 kts | 6° |
| 2026-04-24 07:42 | 23.65590 | 113.37721 | 11648 ft | 313 kts | 6° |
| 2026-04-24 07:43 | 23.67832 | 113.38142 | 11775 ft | 341 kts | 6° |
| 2026-04-24 07:43 | 23.70270 | 113.38603 | 11926 ft | 369 kts | 6° |
| 2026-04-24 07:43 | 23.72837 | 113.39097 | 12554 ft | 378 kts | 6° |
| 2026-04-24 07:43 | 23.75453 | 113.39514 | 13366 ft | 380 kts | 1° |
| 2026-04-24 07:44 | 23.78086 | 113.39476 | 14162 ft | 379 kts | 348° |
| 2026-04-24 07:44 | 23.80611 | 113.38731 | 14855 ft | 375 kts | 332° |
| 2026-04-24 07:44 | 23.82830 | 113.37273 | 15588 ft | 371 kts | 316° |
| 2026-04-24 07:44 | 23.84593 | 113.35247 | 16330 ft | 368 kts | 302° |
| 2026-04-24 07:45 | 23.85814 | 113.32812 | 17068 ft | 365 kts | 288° |
| 2026-04-24 07:45 | 23.86463 | 113.30141 | 17821 ft | 365 kts | 277° |
| 2026-04-24 07:45 | 23.86758 | 113.27380 | 18529 ft | 367 kts | 273° |
| 2026-04-24 07:45 | 23.86886 | 113.25539 | 18974 ft | 368 kts | 272° |
| 2026-04-24 07:46 | 23.87063 | 113.22745 | 19631 ft | 370 kts | 272° |
| 2026-04-24 07:46 | 23.87253 | 113.19937 | 20289 ft | 372 kts | 272° |
| 2026-04-24 07:46 | 23.87465 | 113.17116 | 20980 ft | 374 kts | 272° |
| 2026-04-24 07:46 | 23.87695 | 113.14281 | 21674 ft | 375 kts | 272° |
| 2026-04-24 07:47 | 23.87936 | 113.11431 | 22290 ft | 379 kts | 272° |
| 2026-04-24 07:47 | 23.88186 | 113.08550 | 22882 ft | 383 kts | 272° |
| 2026-04-24 07:47 | 23.88479 | 113.05649 | 23529 ft | 386 kts | 274° |
| 2026-04-24 07:47 | 23.89010 | 113.02757 | 24111 ft | 385 kts | 281° |
| 2026-04-24 07:48 | 23.89723 | 113.00273 | 26801 ft | 309 kts | 283° |
| 2026-04-24 07:48 | 23.90515 | 112.98211 | 28822 ft | 292 kts | 288° |
| 2026-04-24 07:48 | 23.91580 | 112.96292 | 29576 ft | 300 kts | 297° |
| 2026-04-24 07:48 | 23.92988 | 112.94555 | 30170 ft | 312 kts | 305° |
| 2026-04-24 07:49 | 23.94707 | 112.93035 | 30666 ft | 324 kts | 313° |
| 2026-04-24 07:49 | 23.96711 | 112.91769 | 31027 ft | 341 kts | 322° |
| 2026-04-24 07:49 | 23.98951 | 112.90812 | 31374 ft | 350 kts | 328° |
| 2026-04-24 07:49 | 24.01290 | 112.90025 | 31739 ft | 353 kts | 329° |
| 2026-04-24 07:50 | 24.03663 | 112.89277 | 32022 ft | 357 kts | 329° |
| 2026-04-24 07:50 | 24.06072 | 112.88513 | 32082 ft | 366 kts | 329° |
| 2026-04-24 07:50 | 24.08560 | 112.87701 | 32112 ft | 380 kts | 329° |
| 2026-04-24 07:50 | 24.11137 | 112.86845 | 32108 ft | 395 kts | 330° |
| 2026-04-24 07:51 | 24.13807 | 112.85954 | 32104 ft | 407 kts | 330° |
| 2026-04-24 07:51 | 24.16558 | 112.85038 | 32132 ft | 419 kts | 331° |
| 2026-04-24 07:51 | 24.20876 | 112.83599 | 32109 ft | 436 kts | 331° |
| 2026-04-24 07:52 | 24.23816 | 112.82619 | 32108 ft | 447 kts | 331° |
| 2026-04-24 07:52 | 24.26823 | 112.81617 | 32105 ft | 457 kts | 332° |
| 2026-04-24 07:52 | 24.33010 | 112.79555 | 32103 ft | 469 kts | 332° |
| 2026-04-24 07:53 | 24.39090 | 112.77208 | 32108 ft | 453 kts | 323° |
| 2026-04-24 07:53 | 24.41793 | 112.75541 | 32110 ft | 439 kts | 315° |
| 2026-04-24 07:53 | 24.44149 | 112.73494 | 32104 ft | 426 kts | 307° |
| 2026-04-24 07:54 | 24.47770 | 112.68557 | 32141 ft | 409 kts | 293° |
| 2026-04-24 07:54 | 24.49981 | 112.62937 | 32115 ft | 396 kts | 280° |
| 2026-04-24 07:55 | 24.50910 | 112.57033 | 32116 ft | 392 kts | 272° |
| 2026-04-24 07:55 | 24.51409 | 112.51079 | 32119 ft | 391 kts | 272° |
| 2026-04-24 07:56 | 24.51925 | 112.45123 | 32139 ft | 393 kts | 272° |
| 2026-04-24 07:56 | 24.52480 | 112.39158 | 32117 ft | 393 kts | 273° |
| 2026-04-24 07:57 | 24.53053 | 112.33193 | 32117 ft | 393 kts | 273° |
| 2026-04-24 07:57 | 24.53629 | 112.27233 | 32099 ft | 392 kts | 273° |
| 2026-04-24 07:58 | 24.54189 | 112.21282 | 32112 ft | 394 kts | 273° |
| 2026-04-24 07:58 | 24.54760 | 112.15188 | 32112 ft | 409 kts | 272° |
| 2026-04-24 07:59 | 24.55347 | 112.08948 | 32115 ft | 411 kts | 273° |
| 2026-04-24 07:59 | 24.55935 | 112.02710 | 32111 ft | 410 kts | 273° |
| 2026-04-24 08:00 | 24.56517 | 111.96478 | 32105 ft | 410 kts | 273° |
| 2026-04-24 08:00 | 24.57097 | 111.90246 | 32114 ft | 410 kts | 273° |
| 2026-04-24 08:01 | 24.57674 | 111.84018 | 32115 ft | 410 kts | 273° |
| 2026-04-24 08:01 | 24.58249 | 111.77781 | 32120 ft | 411 kts | 273° |
| 2026-04-24 08:02 | 24.58818 | 111.71579 | 32111 ft | 411 kts | 273° |
| 2026-04-24 08:02 | 24.59380 | 111.65317 | 32108 ft | 412 kts | 273° |
| 2026-04-24 08:03 | 24.59933 | 111.59066 | 32088 ft | 410 kts | 274° |
| 2026-04-24 08:03 | 24.60493 | 111.52821 | 32117 ft | 411 kts | 274° |
| 2026-04-24 08:04 | 24.61057 | 111.46546 | 32118 ft | 413 kts | 273° |
| 2026-04-24 08:04 | 24.61618 | 111.40290 | 32119 ft | 411 kts | 273° |
| 2026-04-24 08:05 | 24.62176 | 111.34033 | 32115 ft | 411 kts | 273° |
| 2026-04-24 08:05 | 24.62724 | 111.27779 | 32110 ft | 411 kts | 273° |
| 2026-04-24 08:06 | 24.63260 | 111.21523 | 32117 ft | 411 kts | 273° |
| 2026-04-24 08:06 | 24.63796 | 111.15259 | 32116 ft | 412 kts | 273° |
| 2026-04-24 08:07 | 24.64332 | 111.09000 | 32114 ft | 411 kts | 273° |
| 2026-04-24 08:07 | 24.64867 | 111.02728 | 32106 ft | 412 kts | 273° |
| 2026-04-24 08:08 | 24.65400 | 110.96460 | 32109 ft | 413 kts | 273° |
| 2026-04-24 08:09 | 24.66244 | 110.87023 | 32110 ft | 414 kts | 275° |
| 2026-04-24 08:09 | 24.67587 | 110.80849 | 32101 ft | 419 kts | 285° |
| 2026-04-24 08:10 | 24.70258 | 110.75076 | 32114 ft | 430 kts | 297° |
| 2026-04-24 08:10 | 24.74163 | 110.69985 | 32092 ft | 442 kts | 307° |
| 2026-04-24 08:11 | 24.78648 | 110.65322 | 32129 ft | 445 kts | 309° |
| 2026-04-24 08:11 | 24.83174 | 110.60667 | 32105 ft | 445 kts | 309° |
| 2026-04-24 08:12 | 24.87653 | 110.55967 | 32096 ft | 444 kts | 309° |
| 2026-04-24 08:12 | 24.92105 | 110.51247 | 32103 ft | 445 kts | 308° |
| 2026-04-24 08:13 | 24.96562 | 110.46506 | 32102 ft | 445 kts | 309° |
| 2026-04-24 08:13 | 25.00985 | 110.41808 | 32096 ft | 443 kts | 309° |
| 2026-04-24 08:14 | 25.05428 | 110.37105 | 32099 ft | 443 kts | 309° |
| 2026-04-24 08:14 | 25.09874 | 110.32404 | 32088 ft | 442 kts | 309° |
| 2026-04-24 08:15 | 25.14318 | 110.27705 | 32091 ft | 443 kts | 310° |
| 2026-04-24 08:15 | 25.18758 | 110.23006 | 32075 ft | 442 kts | 310° |
| 2026-04-24 08:16 | 25.23201 | 110.18316 | 32071 ft | 442 kts | 310° |
| 2026-04-24 08:16 | 25.27649 | 110.13631 | 32069 ft | 442 kts | 310° |
| 2026-04-24 08:17 | 25.32089 | 110.08957 | 32093 ft | 440 kts | 310° |
| 2026-04-24 08:17 | 25.36518 | 110.04287 | 32096 ft | 440 kts | 310° |
| 2026-04-24 08:18 | 25.40946 | 109.99613 | 32098 ft | 439 kts | 310° |
| 2026-04-24 08:18 | 25.45358 | 109.94952 | 32097 ft | 438 kts | 310° |
| 2026-04-24 08:19 | 25.49768 | 109.90285 | 32096 ft | 439 kts | 310° |
| 2026-04-24 08:19 | 25.54179 | 109.85615 | 32104 ft | 439 kts | 310° |
| 2026-04-24 08:20 | 25.58587 | 109.80943 | 32091 ft | 438 kts | 310° |
| 2026-04-24 08:20 | 25.62989 | 109.76271 | 32094 ft | 438 kts | 310° |
| 2026-04-24 08:21 | 25.67382 | 109.71605 | 32098 ft | 437 kts | 310° |
| 2026-04-24 08:21 | 25.71764 | 109.66946 | 32096 ft | 436 kts | 310° |
| 2026-04-24 08:22 | 25.76017 | 109.62176 | 32100 ft | 432 kts | 304° |
| 2026-04-24 08:22 | 25.79047 | 109.56553 | 32103 ft | 423 kts | 288° |
| 2026-04-24 08:23 | 25.80750 | 109.50333 | 32114 ft | 421 kts | 283° |
| 2026-04-24 08:23 | 25.82261 | 109.44020 | 32109 ft | 424 kts | 284° |
| 2026-04-24 08:24 | 25.83831 | 109.37780 | 32110 ft | 421 kts | 284° |
| 2026-04-24 08:24 | 25.85453 | 109.31522 | 32116 ft | 424 kts | 284° |
| 2026-04-24 08:25 | 25.87106 | 109.25191 | 32119 ft | 424 kts | 284° |
| 2026-04-24 08:25 | 25.88733 | 109.18951 | 32118 ft | 423 kts | 284° |
| 2026-04-24 08:26 | 25.90365 | 109.12669 | 32122 ft | 424 kts | 284° |
| 2026-04-24 08:26 | 25.92000 | 109.06365 | 32119 ft | 426 kts | 285° |
| 2026-04-24 08:27 | 25.93658 | 109.00045 | 32117 ft | 426 kts | 285° |
| 2026-04-24 08:27 | 25.95335 | 108.93724 | 32131 ft | 427 kts | 285° |
| 2026-04-24 08:28 | 25.97017 | 108.87396 | 32131 ft | 426 kts | 285° |
| 2026-04-24 08:28 | 25.98696 | 108.81072 | 32137 ft | 427 kts | 285° |
| 2026-04-24 08:29 | 26.00091 | 108.75803 | 32135 ft | 427 kts | 285° |
| 2026-04-24 08:29 | 26.02044 | 108.68407 | 32146 ft | 427 kts | 285° |
| 2026-04-24 08:30 | 26.03717 | 108.62071 | 32145 ft | 427 kts | 285° |
| 2026-04-24 08:30 | 26.05106 | 108.56813 | 32152 ft | 426 kts | 285° |
| 2026-04-24 08:31 | 26.06774 | 108.50490 | 32155 ft | 426 kts | 285° |
| 2026-04-24 08:31 | 26.08443 | 108.44154 | 32146 ft | 427 kts | 285° |
| 2026-04-24 08:32 | 26.09939 | 108.37757 | 32156 ft | 428 kts | 281° |
| 2026-04-24 08:32 | 26.10789 | 108.31199 | 32158 ft | 429 kts | 278° |
| 2026-04-24 08:33 | 26.11505 | 108.24612 | 32156 ft | 429 kts | 277° |
| 2026-04-24 08:33 | 26.12244 | 108.18039 | 32159 ft | 428 kts | 278° |
| 2026-04-24 08:34 | 26.13002 | 108.11487 | 32167 ft | 427 kts | 278° |
| 2026-04-24 08:34 | 26.13767 | 108.04915 | 32164 ft | 429 kts | 278° |
| 2026-04-24 08:35 | 26.14530 | 107.98333 | 32174 ft | 428 kts | 278° |
| 2026-04-24 08:35 | 26.15288 | 107.91766 | 32174 ft | 428 kts | 278° |
| 2026-04-24 08:36 | 26.16045 | 107.85182 | 32176 ft | 429 kts | 278° |
| 2026-04-24 08:36 | 26.16793 | 107.78596 | 32182 ft | 428 kts | 278° |
| 2026-04-24 08:37 | 26.17538 | 107.72056 | 32187 ft | 429 kts | 278° |
| 2026-04-24 08:37 | 26.18292 | 107.65463 | 32182 ft | 429 kts | 278° |
| 2026-04-24 08:38 | 26.19045 | 107.58874 | 32190 ft | 429 kts | 278° |
| 2026-04-24 08:38 | 26.19790 | 107.52280 | 32188 ft | 429 kts | 278° |
| 2026-04-24 08:39 | 26.20530 | 107.45678 | 32195 ft | 430 kts | 278° |
| 2026-04-24 08:39 | 26.21263 | 107.39131 | 31955 ft | 413 kts | 279° |
| 2026-04-24 08:39 | 26.21606 | 107.36036 | 31637 ft | 394 kts | 279° |
| 2026-04-24 08:40 | 26.21938 | 107.33043 | 31186 ft | 388 kts | 279° |
| 2026-04-24 08:40 | 26.22269 | 107.30079 | 30689 ft | 385 kts | 279° |
| 2026-04-24 08:40 | 26.22601 | 107.27116 | 30203 ft | 386 kts | 279° |
| 2026-04-24 08:40 | 26.22932 | 107.24148 | 29641 ft | 387 kts | 279° |
| 2026-04-24 08:41 | 26.23265 | 107.21165 | 29117 ft | 389 kts | 279° |
| 2026-04-24 08:41 | 26.23597 | 107.18166 | 28609 ft | 391 kts | 279° |
| 2026-04-24 08:41 | 26.23927 | 107.15143 | 28110 ft | 394 kts | 279° |
| 2026-04-24 08:41 | 26.24255 | 107.12109 | 27617 ft | 396 kts | 279° |
| 2026-04-24 08:42 | 26.24586 | 107.09058 | 27113 ft | 397 kts | 279° |
| 2026-04-24 08:42 | 26.24917 | 107.05995 | 26614 ft | 399 kts | 278° |
| 2026-04-24 08:42 | 26.25251 | 107.02914 | 26106 ft | 402 kts | 279° |
| 2026-04-24 08:42 | 26.25588 | 106.99809 | 25610 ft | 405 kts | 279° |
| 2026-04-24 08:43 | 26.25927 | 106.96684 | 25090 ft | 408 kts | 279° |
| 2026-04-24 08:43 | 26.26266 | 106.93546 | 24582 ft | 407 kts | 279° |
| 2026-04-24 08:43 | 26.26617 | 106.90431 | 24074 ft | 404 kts | 281° |
| 2026-04-24 08:43 | 26.27227 | 106.87390 | 23525 ft | 400 kts | 287° |
| 2026-04-24 08:44 | 26.28054 | 106.84449 | 22958 ft | 397 kts | 290° |
| 2026-04-24 08:44 | 26.28964 | 106.81550 | 22407 ft | 395 kts | 290° |
| 2026-04-24 08:44 | 26.29889 | 106.78678 | 21887 ft | 393 kts | 291° |
| 2026-04-24 08:44 | 26.30808 | 106.75823 | 21370 ft | 390 kts | 291° |
| 2026-04-24 08:45 | 26.31854 | 106.73044 | 20853 ft | 388 kts | 298° |
| 2026-04-24 08:45 | 26.33287 | 106.70519 | 20336 ft | 385 kts | 309° |
| 2026-04-24 08:45 | 26.35195 | 106.68438 | 19823 ft | 384 kts | 322° |
| 2026-04-24 08:45 | 26.37502 | 106.66941 | 19324 ft | 385 kts | 335° |
| 2026-04-24 08:46 | 26.40073 | 106.66103 | 18821 ft | 387 kts | 348° |
| 2026-04-24 08:46 | 26.42762 | 106.65954 | 18299 ft | 389 kts | 0° |
| 2026-04-24 08:46 | 26.45449 | 106.66330 | 17718 ft | 389 kts | 6° |
| 2026-04-24 08:46 | 26.48102 | 106.66902 | 17223 ft | 387 kts | 8° |
| 2026-04-24 08:47 | 26.50728 | 106.67507 | 16697 ft | 383 kts | 8° |
| 2026-04-24 08:47 | 26.53329 | 106.68092 | 16197 ft | 379 kts | 8° |
| 2026-04-24 08:47 | 26.55910 | 106.68646 | 15698 ft | 376 kts | 8° |
| 2026-04-24 08:47 | 26.58473 | 106.69176 | 15206 ft | 374 kts | 8° |
| 2026-04-24 08:48 | 26.61024 | 106.69689 | 14785 ft | 371 kts | 8° |
| 2026-04-24 08:48 | 26.63559 | 106.70192 | 14538 ft | 369 kts | 8° |
| 2026-04-24 08:48 | 26.66020 | 106.70679 | 14417 ft | 348 kts | 8° |
| 2026-04-24 08:48 | 26.68321 | 106.71135 | 14293 ft | 325 kts | 7° |
| 2026-04-24 08:49 | 26.70452 | 106.71557 | 14181 ft | 305 kts | 7° |
| 2026-04-24 08:49 | 26.72476 | 106.71956 | 14077 ft | 286 kts | 7° |
| 2026-04-24 08:49 | 26.74346 | 106.72324 | 13979 ft | 269 kts | 7° |
| 2026-04-24 08:49 | 26.76149 | 106.72678 | 13860 ft | 254 kts | 7° |
| 2026-04-24 08:50 | 26.77839 | 106.73010 | 13743 ft | 240 kts | 8° |
| 2026-04-24 08:50 | 26.79475 | 106.73330 | 13657 ft | 238 kts | 7° |
| 2026-04-24 08:50 | 26.81102 | 106.73648 | 13527 ft | 237 kts | 7° |
| 2026-04-24 08:50 | 26.82727 | 106.74003 | 13230 ft | 239 kts | 13° |
| 2026-04-24 08:51 | 26.84232 | 106.74795 | 12763 ft | 243 kts | 35° |
| 2026-04-24 08:51 | 26.85272 | 106.76274 | 12264 ft | 247 kts | 64° |
| 2026-04-24 08:51 | 26.85545 | 106.78179 | 11777 ft | 253 kts | 90° |
| 2026-04-24 08:51 | 26.85330 | 106.80148 | 11216 ft | 255 kts | 97° |
| 2026-04-24 08:52 | 26.85005 | 106.82090 | 10701 ft | 252 kts | 101° |
| 2026-04-24 08:52 | 26.84352 | 106.83880 | 10223 ft | 243 kts | 123° |
| 2026-04-24 08:52 | 26.83149 | 106.85074 | 9738 ft | 224 kts | 154° |
| 2026-04-24 08:52 | 26.81688 | 106.85417 | 9301 ft | 213 kts | 184° |
| 2026-04-24 08:53 | 26.80218 | 106.85238 | 8935 ft | 212 kts | 189° |
| 2026-04-24 08:53 | 26.78773 | 106.85008 | 8510 ft | 210 kts | 189° |
| 2026-04-24 08:53 | 26.77389 | 106.84796 | 8139 ft | 191 kts | 189° |
| 2026-04-24 08:53 | 26.76099 | 106.84599 | 7863 ft | 184 kts | 189° |
| 2026-04-24 08:54 | 26.74849 | 106.84400 | 7839 ft | 182 kts | 189° |
| 2026-04-24 08:54 | 26.73601 | 106.84194 | 7800 ft | 182 kts | 190° |
| 2026-04-24 08:54 | 26.72361 | 106.83932 | 7795 ft | 182 kts | 195° |
| 2026-04-24 08:54 | 26.71125 | 106.83579 | 7545 ft | 183 kts | 194° |
| 2026-04-24 08:55 | 26.69885 | 106.83269 | 7180 ft | 182 kts | 191° |
| 2026-04-24 08:55 | 26.68645 | 106.83026 | 6842 ft | 180 kts | 189° |
| 2026-04-24 08:55 | 26.67430 | 106.82793 | 6595 ft | 175 kts | 189° |
| 2026-04-24 08:55 | 26.66203 | 106.82571 | 6171 ft | 177 kts | 187° |
| 2026-04-24 08:56 | 26.64989 | 106.82373 | 5701 ft | 176 kts | 188° |
| 2026-04-24 08:56 | 26.63796 | 106.82130 | 5297 ft | 173 kts | 191° |
| 2026-04-24 08:56 | 26.62629 | 106.81854 | 5029 ft | 171 kts | 191° |
| 2026-04-24 08:56 | 26.61447 | 106.81615 | 4886 ft | 174 kts | 188° |
| 2026-04-24 08:57 | 26.60253 | 106.81386 | 4681 ft | 174 kts | 189° |
| 2026-04-24 08:57 | 26.59056 | 106.81154 | 4563 ft | 175 kts | 189° |
| 2026-04-24 08:57 | 26.57870 | 106.80920 | 4290 ft | 172 kts | 190° |
| 2026-04-24 08:57 | 26.56696 | 106.80689 | 4071 ft | 171 kts | 191° |
| 2026-04-24 08:58 | 26.55530 | 106.80460 | 3838 ft | 170 kts | 191° |
| 2026-04-24 08:58 | 26.54425 | 106.80243 | 3764 ft | 142 kts | 189° |
| 2026-04-24 08:58 | 26.53619 | 106.80088 | 3752 ft | 95 kts | 189° |
| 2026-04-24 08:58 | 26.53218 | 106.80001 | 3760 ft | 29 kts | 203° |
| 2026-04-24 08:59 | 26.53112 | 106.79919 | 3761 ft | 13 kts | 218° |
| 2026-04-24 08:59 | 26.53054 | 106.79858 | 3764 ft | 10 kts | 236° |
| 2026-04-24 08:59 | 26.53041 | 106.79795 | 3754 ft | 6 kts | 270° |
| 2026-04-24 08:59 | 26.53043 | 106.79758 | 3754 ft | 4 kts | 273° |
| 2026-04-24 09:00 | 26.53047 | 106.79740 | 3754 ft | 6 kts | 285° |
| 2026-04-24 09:00 | 26.53120 | 106.79677 | 3754 ft | 8 kts | 347° |
| 2026-04-24 09:00 | 26.53122 | 106.79676 | 3754 ft | 0 kts | 347° |